KBOW/BOW METAR and TAF weather

Enter ICAO airport designator
Station Type Date Time Source
KBOW METAR 2021/03/03 19:50 UTC NOAA

KBOW 031950Z 29011KT 10SM SKC 23/11 A2991


Station Type Date Time Source
KBOW Decoded METAR 2021/03/03 19:50 UTC NOAA

Bartow Municipal, FL, United States (KBOW) 27-57N 081-47W
Mar 03, 2021 - 02:50 PM EST / 2021.03.03 1950 UTC
Wind: from the WNW (290 degrees) at 13 MPH (11 KT):0
Visibility: 10 mile(s):0
Sky conditions: clear
Temperature: 73 F (23 C)
Dew Point: 51 F (11 C)
Relative Humidity: 46%
Pressure (altimeter): 29.91 in. Hg (1012 hPa)
ob: KBOW 031950Z 29011KT 10SM SKC 23/11 A2991
cycle: 20

Station Type Date Time Source
KBOW TAF UTC NOAA

Error!

Example: see airport list